Sheboygan, WI (SGNW3)

Conditions for Tuesday

Daily
Weekly
Monthly
Marine Data Graph
Ad Blocker Enabled

Marine & Boating Location Search

Enter a coastal zip code for marine weather.

General Information

Location: 43.749 -87.693
Buoy Type: C-MAN Station
Payload: Sutron XPERT payload
Owned by: NDBC
Windspeed: Measured by obtained from anemometer
Sea Surface: Measured by Intake

Weather and Wave Data

Time Temp Humidity Wind Pressure
  Air
(°F)
Water
(°F)
  Dir Speed
(kts)
Speed
(mph)
Atmo.
(in)
Tend.
(in)
20:00 40 46 59 NW 2.0 2.3 30.17 -0.02
21:00 40 46 72 North 8.0 9.2 30.17 -0.03
22:00 39 46 60 West 7.0 8.1 30.16 -0.03
23:00 39 46 62 West 5.0 5.8 30.14 -0.04
00:00 39 46 57 WNW 3.0 3.5 30.13 -0.04
01:00 40 46 55 - 0.0 0.0 30.12 -0.04
02:00 40 46 52 West 7.0 8.1 30.11 -0.03
03:00 40 46 53 WSW 5.0 5.8 30.08 -0.05
04:00 40 45 55 SSW 7.0 8.1 30.04 -0.07
05:00 39 45 57 WSW 8.0 9.2 30.04 -0.06
06:00 38 47 57 SW 9.0 10.4 30.02 -0.06
07:00 39 47 55 SW 9.0 10.4 30.02 -0.02
09:00 40 46 51 SSW 11.0 12.7 30.01 -0.02
10:00 41 45 48 SW 11.0 12.7 29.99 -0.03
11:00 42 45 52 SSW 14.0 16.1 29.97 -0.04
12:00 42 45 53 South 13.0 15.0 29.94 -0.07
13:00 43 46 52 South 13.0 15.0 29.91 -0.08
14:00 43 45 60 South 17.0 19.6 29.90 -0.07
15:00 42 45 72 SSW 13.0 15.0 29.90 -0.04
16:00 41 45 80 SSW 9.0 10.4 29.90 -0.01
17:00 42 46 83 SW 7.0 8.1 29.91 -
18:00 41 45 91 SW 8.0 9.2 29.91 +0.01
19:00 40 46 94 WSW 7.0 8.1 29.91 +0.01
20:00 40 48 90 SW 9.0 10.4 29.91 +0.01
21:00 40 49 89 SW 8.0 9.2 29.92 +0.01
22:00 40 49 88 SW 6.0 6.9 29.92 +0.01
23:00 39 50 92 West 4.0 4.6 29.93 +0.01
00:00 39 50 92 West 3.0 3.5 29.93 +0.01
01:00 40 50 90 North 3.0 3.5 29.95 +0.02
02:00 40 49 91 NW 5.0 5.8 29.96 +0.03
03:00 40 49 90 NW 5.0 5.8 29.97 +0.04

Detailed Wave Spectra